Irish Sea — WDB5555 — position and weather

sailwx.info

Track history (hours):
 
Tides and Currents Weather Stations Pressure Air Temp Water Temp Dewpoint Dewpoint Depression Visibility Wind Speed Wind Dir Waves Ship Positions

Irish Sea

Owner: Kirby Offshore Marine, LLC, Staten Island, NY. More information available from US FCC via Universal Licensing System and Coast Guard Vessel Documentation Center.

Last reported at 2014-Oct-20 04:07 UTC. Time now 2014-Oct-20 21:17 UTC.
Position N 40°32' W 074°01'.

Length 152 m; draft 6.8 m.

Type: Ship (hazmat cat B). MMSI: 366910920.

Date/timePositionNaut miles runAvg speedWind from/ knotsBaromVisibWave heightAir tempDewpointWater temp
2014-Oct-20 04:07N 40°32' W 074°01'611.4
2014-Oct-20 03:33N 40°38' W 074°04'5 4.7
2014-Oct-20 02:33N 40°39' W 074°10'0 0.0
2014-Oct-19 21:31N 40°39' W 074°10'0 0.0
2014-Oct-19 20:31N 40°39' W 074°10'5 4.5
2014-Oct-19 19:31N 40°39' W 074°04'7 7.3
2014-Oct-19 18:33N 40°45' W 073°58'0 0.0
2014-Oct-18 22:33N 40°45' W 073°58'4 4.3
2014-Oct-18 21:34N 40°41' W 074°01'2 2.1
2014-Oct-18 20:33N 40°39' W 074°03'0 0.0
2014-Oct-18 19:34N 40°39' W 074°03'0 0.0
2014-Oct-18 18:33N 40°39' W 074°03'0 0.2
2014-Oct-18 17:34N 40°39' W 074°03'49 7.0
2014-Oct-18 10:31N 39°50' W 073°58'7 7.8
2014-Oct-18 09:33N 39°43' W 074°00'8 7.9
2014-Oct-18 08:32N 39°36' W 074°05'66 4.7
2014-Oct-17 18:33N 39°23' W 075°29'8 7.6
2014-Oct-17 17:33N 39°30' W 075°34'6 5.4
2014-Oct-17 16:32N 39°35' W 075°36'0 0.0
2014-Oct-17 15:32N 39°35' W 075°36'0 0.0
2014-Oct-17 14:32N 39°35' W 075°36'0 0.0
2014-Oct-17 13:32N 39°35' W 075°36'0 0.0
2014-Oct-17 12:32N 39°35' W 075°36'0 0.0
2014-Oct-17 11:32N 39°35' W 075°36'0 0.0
2014-Oct-17 10:32N 39°35' W 075°36'0 0.0
2014-Oct-17 09:32N 39°35' W 075°36'0 0.0
2014-Oct-17 08:32N 39°35' W 075°36'0 0.0
2014-Oct-17 07:32N 39°35' W 075°36'0 0.0
2014-Oct-17 06:32N 39°35' W 075°36'0 0.0
2014-Oct-17 05:32N 39°35' W 075°36'0 0.0
2014-Oct-17 04:32N 39°35' W 075°36'0 0.0
2014-Oct-17 03:32N 39°35' W 075°36'0 0.0
2014-Oct-17 02:32N 39°35' W 075°36'0 0.0
2014-Oct-17 01:32N 39°35' W 075°36'0 0.0
2014-Oct-17 00:32N 39°35' W 075°36'0 0.0
2014-Oct-16 23:32N 39°35' W 075°36'0 0.0
2014-Oct-16 22:32N 39°35' W 075°36'0 0.0
2014-Oct-16 21:32N 39°35' W 075°36'0 0.0
2014-Oct-16 20:32N 39°35' W 075°36'0 0.0
2014-Oct-16 19:29N 39°35' W 075°36'33 0.7
2014-Oct-14 23:25N 39°59' W 075°06'53 1.9
2014-Oct-13 19:09N 39°28' W 074°09'4 7.4
2014-Oct-13 18:33N 39°32' W 074°07'7 7.4
2014-Oct-13 17:33N 39°39' W 074°02'8 7.5
2014-Oct-13 16:33N 39°45' W 073°57'10 7.6
2014-Oct-13 15:13N 39°55' W 073°57'23 7.6
2014-Oct-13 12:09N 40°19' W 073°55'11 6.9
2014-Oct-13 10:33N 40°29' W 073°60'8 7.5
2014-Oct-13 09:30N 40°30' W 074°10'4 0.1
2014-Oct-12 00:10N 40°30' W 074°15'0 0.2
2014-Oct-11 23:33N 40°29' W 074°15'10 2.0
2014-Oct-11 18:33N 40°39' W 074°10'8 8.0
2014-Oct-11 17:33N 40°42' W 074°00'27 8.6
2014-Oct-11 14:25N 40°58' W 073°31'910.4
2014-Oct-11 13:33N 41°01' W 073°21'20 9.8
2014-Oct-11 11:33N 41°11' W 072°58'8 7.4
2014-Oct-11 10:33N 41°18' W 072°55'0 0.0
2014-Oct-11 07:21N 41°18' W 072°55'2 0.1
2014-Oct-10 17:29N 41°16' W 072°55'6 6.3
2014-Oct-10 16:31N 41°10' W 072°58'22 7.0
2014-Oct-10 13:19N 41°00' W 073°24'  
Track history (hours):
 
Tides and Currents Weather Stations Pressure Air Temp Water Temp Dewpoint Dewpoint Depression Visibility Wind Speed Wind Dir Waves Ship Positions

Irish Sea

Owner: Kirby Offshore Marine, LLC, Staten Island, NY. More information available from US FCC via Universal Licensing System and Coast Guard Vessel Documentation Center.

Last reported at 2014-Oct-20 04:07 UTC. Time now 2014-Oct-20 21:17 UTC.
Position N 40°32' W 074°01'.

Length 152 m; draft 6.8 m.

Type: Ship (hazmat cat B). MMSI: 366910920.

Date/timePositionNaut miles runAvg speedWind from/ knotsBaromVisibWave heightAir tempDewpointWater temp
2014-Oct-20 04:07N 40°32' W 074°01'611.4
2014-Oct-20 03:33N 40°38' W 074°04'5 4.7
2014-Oct-20 02:33N 40°39' W 074°10'0 0.0
2014-Oct-19 21:31N 40°39' W 074°10'0 0.0
2014-Oct-19 20:31N 40°39' W 074°10'5 4.5
2014-Oct-19 19:31N 40°39' W 074°04'7 7.3
2014-Oct-19 18:33N 40°45' W 073°58'0 0.0
2014-Oct-18 22:33N 40°45' W 073°58'4 4.3
2014-Oct-18 21:34N 40°41' W 074°01'2 2.1
2014-Oct-18 20:33N 40°39' W 074°03'0 0.0
2014-Oct-18 19:34N 40°39' W 074°03'0 0.0
2014-Oct-18 18:33N 40°39' W 074°03'0 0.2
2014-Oct-18 17:34N 40°39' W 074°03'49 7.0
2014-Oct-18 10:31N 39°50' W 073°58'7 7.8
2014-Oct-18 09:33N 39°43' W 074°00'8 7.9
2014-Oct-18 08:32N 39°36' W 074°05'66 4.7
2014-Oct-17 18:33N 39°23' W 075°29'8 7.6
2014-Oct-17 17:33N 39°30' W 075°34'6 5.4
2014-Oct-17 16:32N 39°35' W 075°36'0 0.0
2014-Oct-17 15:32N 39°35' W 075°36'0 0.0
2014-Oct-17 14:32N 39°35' W 075°36'0 0.0
2014-Oct-17 13:32N 39°35' W 075°36'0 0.0
2014-Oct-17 12:32N 39°35' W 075°36'0 0.0
2014-Oct-17 11:32N 39°35' W 075°36'0 0.0
2014-Oct-17 10:32N 39°35' W 075°36'0 0.0
2014-Oct-17 09:32N 39°35' W 075°36'0 0.0
2014-Oct-17 08:32N 39°35' W 075°36'0 0.0
2014-Oct-17 07:32N 39°35' W 075°36'0 0.0
2014-Oct-17 06:32N 39°35' W 075°36'0 0.0
2014-Oct-17 05:32N 39°35' W 075°36'0 0.0
2014-Oct-17 04:32N 39°35' W 075°36'0 0.0
2014-Oct-17 03:32N 39°35' W 075°36'0 0.0
2014-Oct-17 02:32N 39°35' W 075°36'0 0.0
2014-Oct-17 01:32N 39°35' W 075°36'0 0.0
2014-Oct-17 00:32N 39°35' W 075°36'0 0.0
2014-Oct-16 23:32N 39°35' W 075°36'0 0.0
2014-Oct-16 22:32N 39°35' W 075°36'0 0.0
2014-Oct-16 21:32N 39°35' W 075°36'0 0.0
2014-Oct-16 20:32N 39°35' W 075°36'0 0.0
2014-Oct-16 19:29N 39°35' W 075°36'33 0.7
2014-Oct-14 23:25N 39°59' W 075°06'53 1.9
2014-Oct-13 19:09N 39°28' W 074°09'4 7.4
2014-Oct-13 18:33N 39°32' W 074°07'7 7.4
2014-Oct-13 17:33N 39°39' W 074°02'8 7.5
2014-Oct-13 16:33N 39°45' W 073°57'10 7.6
2014-Oct-13 15:13N 39°55' W 073°57'23 7.6
2014-Oct-13 12:09N 40°19' W 073°55'11 6.9
2014-Oct-13 10:33N 40°29' W 073°60'8 7.5
2014-Oct-13 09:30N 40°30' W 074°10'4 0.1
2014-Oct-12 00:10N 40°30' W 074°15'0 0.2
2014-Oct-11 23:33N 40°29' W 074°15'10 2.0
2014-Oct-11 18:33N 40°39' W 074°10'8 8.0
2014-Oct-11 17:33N 40°42' W 074°00'27 8.6
2014-Oct-11 14:25N 40°58' W 073°31'910.4
2014-Oct-11 13:33N 41°01' W 073°21'20 9.8
2014-Oct-11 11:33N 41°11' W 072°58'8 7.4
2014-Oct-11 10:33N 41°18' W 072°55'0 0.0
2014-Oct-11 07:21N 41°18' W 072°55'2 0.1
2014-Oct-10 17:29N 41°16' W 072°55'6 6.3
2014-Oct-10 16:31N 41°10' W 072°58'22 7.0
2014-Oct-10 13:19N 41°00' W 073°24'  

Dump ship's entire track history